Flight Track Log - Related Links

Times and Time Zones

All times are in EDT time to prevent confusion due to time zone crossing. See the N70AG flight status page for this flight to view local times or setup timezone preferences in your user account.

Time Position Orientation Groundspeed Altitude Reporting Facility
EDT Latitude Longitude Course Direction KTS MPH feet Rate Location/Type
Thu 03:37:21 PM 32.7461 -117.2258 307° West 182 209 2,300  Level Los Angeles Center
Thu 03:38:24 PM 32.7839 -117.2856 307° West 232 267 6,200 3,744 Climbing Los Angeles Center
Thu 03:39:26 PM 32.8283 -117.3461 311° West 261 300 10,100 3,484 Climbing Los Angeles Center
Thu 03:40:28 PM 32.8994 -117.4436 311° West 330 380 13,400 3,242 Climbing Los Angeles Center
Thu 03:41:30 PM 32.9656 -117.5358 311° West 359 413 16,800 3,145 Climbing Los Angeles Center
Thu 03:42:32 PM 33.0350 -117.6331 310° West 377 434 19,900 2,903 Climbing Los Angeles Center
Thu 03:43:34 PM 33.1083 -117.7336 311° West 397 457 22,800 1,790 Climbing Los Angeles Center
Thu 03:44:36 PM 33.1819 -117.8419 309° West 417 480 23,600 1,577 Climbing Los Angeles Center
Thu 03:45:51 PM 33.2267 -117.9703 293° West 415 478 26,400 1,489 Climbing Los Angeles Center
Thu 03:46:53 PM 33.3100 -118.1064 306° West 441 507 27,000 290 Climbing Los Angeles Center
Thu 03:47:55 PM 33.4572 -118.0803 North 471 542 27,000  Level Los Angeles Center
Thu 03:48:57 PM 33.5769 -118.0244 21° North 468 539 27,000  Level Los Angeles Center
Thu 03:50:00 PM 33.6969 -117.9664 22° Northeast 471 542 27,000  Level Los Angeles Center
Thu 03:51:02 PM 33.8414 -117.8992 21° North 470 541 27,000  Level Los Angeles Center
Thu 03:52:04 PM 33.9625 -117.8414 22° Northeast 471 542 27,000  Level Los Angeles Center
Thu 03:53:06 PM 34.0789 -117.7714 26° Northeast 471 542 27,000  Level Los Angeles Center
Thu 03:54:20 PM 34.1744 -117.6597 44° Northeast 478 550 27,000  Level Los Angeles Center
Thu 03:55:23 PM 34.2972 -117.4908 49° Northeast 479 551 27,000  Level Los Angeles Center
Thu 03:56:25 PM 34.3858 -117.3703 48° Northeast 480 552 27,000  Level Los Angeles Center
Thu 03:57:27 PM 34.4675 -117.2586 48° Northeast 482 555 27,000  Level Los Angeles Center
Thu 03:58:29 PM 34.5547 -117.1372 49° Northeast 481 554 27,000  Level Los Angeles Center
Thu 03:59:31 PM 34.6597 -116.9922 49° Northeast 481 554 27,000  Level Los Angeles Center
Thu 04:00:33 PM 34.7486 -116.8706 48° Northeast 485 558 27,000 -242 Level Los Angeles Center
Thu 04:01:35 PM 34.8364 -116.7489 49° Northeast 483 556 26,500 -672 Descending Los Angeles Center
Thu 04:02:38 PM 34.9228 -116.6278 49° Northeast 478 550 25,600 -816 Descending Los Angeles Center
Thu 04:03:40 PM 35.0128 -116.5106 47° Northeast 475 547 24,800 -774 Descending Los Angeles Center
Thu 04:04:42 PM 35.1208 -116.3772 45° Northeast 466 536 24,000 -387 Descending Los Angeles Center
Thu 04:05:44 PM 35.2103 -116.2639 46° Northeast 464 534 24,000 -1,016 Level Los Angeles Center
Thu 04:06:46 PM 35.2986 -116.1522 46° Northeast 459 528 21,900 -1,839 Descending Los Angeles Center
Thu 04:07:48 PM 35.3667 -116.0644 46° Northeast 450 518 20,200 -1,984 Descending Los Angeles Center
Thu 04:08:50 PM 35.4678 -115.9403 45° Northeast 431 496 17,800 -2,160 Descending Los Angeles Center
Thu 04:09:53 PM 35.5525 -115.8311 46° Northeast 418 481 15,700 -2,163 Descending Los Angeles Center
Thu 04:10:16 PM 35.5950 -115.7803 44° Northeast 399 459 14,700 -2,032 Descending Los Angeles Center
Thu 04:10:55 PM 35.6400 -115.7211 47° Northeast 383 441 13,600 -1,527 Descending Los Angeles Center
Thu 04:11:11 PM 35.6544 -115.7056 41° Northeast 368 423 13,300 -581 Descending Los Angeles Center
Thu 04:11:57 PM 35.7053 -115.6383 47° Northeast 349 402 13,000 -273 Descending Los Angeles Center
Thu 04:12:17 PM 35.7314 -115.6122 39° Northeast 328 377 13,000  Level Los Angeles Center
Thu 04:12:59 PM 35.7850 -115.5792 27° Northeast 317 365 13,000  Level Los Angeles Center
Thu 04:13:27 PM 35.8156 -115.5717 11° North 305 351 13,000  Level Los Angeles Center
Thu 04:14:01 PM 35.8692 -115.5675 North 303 349 13,000  Level Los Angeles Center
Thu 04:14:25 PM 35.9011 -115.5681 359° North 302 348 13,000  Level Los Angeles Center
Thu 04:15:21 PM 35.9694 -115.5247 27° Northeast 294 338 13,000 -584 Level Los Angeles Center
Thu 04:16:18 PM 36.0100 -115.4419 59° Northeast 281 323 11,900 -1,160 Descending Los Angeles Center
Thu 04:17:20 PM 36.0294 -115.3525 75° East 274 315 10,700 -1,113 Descending Los Angeles Center
Thu 04:18:22 PM 36.0219 -115.2589 96° East 272 313 9,600 -1,306 Descending Los Angeles Center
Thu 04:19:24 PM 36.0161 -115.1694 95° East 268 308 8,000 -774 Descending Los Angeles Center
Thu 04:20:26 PM 36.0119 -115.0917 94° East 248 285 8,000 -590 Level Los Angeles Center
Thu 04:21:26 PM 36.0506 -115.0408 47° Northeast 211 243 6,800 -1,134 Descending Los Angeles Center
Thu 04:22:33 PM 36.1056 -115.0094 25° Northeast 211 243 5,600 -1,276 Descending Los Angeles Center
Thu 04:23:33 PM 36.1339 -115.0667 302° West 185 213 4,100 -1,180 Descending Los Angeles Center
Thu 04:24:35 PM 36.1458 -115.1169 286° West 184 212 3,200 -774 Descending Los Angeles Center
Thu 04:25:37 PM 36.1169 -115.1458 219° Southwest 150 173 2,500 -677 Descending Los Angeles Center
Thu 04:27:00 PM 36.0801 -115.1523 270° West  Level Estimated
Thu 04:34:00 PM 36.0801 -115.1523 270° West  Level Estimated

Login

Don't have an account? Register now (free) for customized features, flight alerts, and more!